createdAt,value
2019-02-12T00:00:49.455Z,996.91
2019-02-12T00:01:49.483Z,997.04
2019-02-12T00:02:49.503Z,997.04
2019-02-12T00:03:49.529Z,997.08
2019-02-12T00:04:49.552Z,997.02
2019-02-12T00:05:49.576Z,997.00
2019-02-12T00:06:49.599Z,997.19
2019-02-12T00:07:49.624Z,997.10
2019-02-12T00:08:49.648Z,997.15
2019-02-12T00:09:49.674Z,997.04
2019-02-12T00:10:49.699Z,997.14
2019-02-12T00:11:49.721Z,997.10
2019-02-12T00:12:49.749Z,997.17
2019-02-12T00:13:49.769Z,997.14
2019-02-12T00:14:49.797Z,997.14
2019-02-12T00:15:49.820Z,997.29
2019-02-12T00:16:49.845Z,997.21
2019-02-12T00:17:49.868Z,997.15
2019-02-12T00:18:49.899Z,997.15
2019-02-12T00:19:49.919Z,997.24
2019-02-12T00:20:49.944Z,997.15
2019-02-12T00:21:49.968Z,997.29
2019-02-12T00:22:49.992Z,997.34
2019-02-12T00:23:50.017Z,997.35
2019-02-12T00:24:50.048Z,997.30
2019-02-12T00:25:50.071Z,997.35
2019-02-12T00:26:50.091Z,997.37
2019-02-12T00:27:50.117Z,997.39
2019-02-12T00:28:50.140Z,997.47
2019-02-12T00:29:50.165Z,997.50
2019-02-12T00:30:50.190Z,997.50
2019-02-12T00:31:50.214Z,997.47
2019-02-12T00:32:50.246Z,997.44
2019-02-12T00:33:50.262Z,997.61
2019-02-12T00:34:50.294Z,997.66
2019-02-12T00:35:50.312Z,997.58
2019-02-12T00:36:50.335Z,997.61
2019-02-12T00:37:50.360Z,997.66
2019-02-12T00:38:50.387Z,997.66
2019-02-12T00:39:50.412Z,997.69
2019-02-12T00:40:50.437Z,997.63
2019-02-12T00:41:50.457Z,997.70
2019-02-12T00:42:50.485Z,997.73
2019-02-12T00:43:50.507Z,997.71
2019-02-12T00:44:50.533Z,997.70
2019-02-12T00:45:50.559Z,997.76
2019-02-12T00:46:50.586Z,997.77
2019-02-12T00:47:50.606Z,997.77
2019-02-12T00:48:50.629Z,997.77
2019-02-12T00:49:50.656Z,997.82
2019-02-12T00:50:50.683Z,997.74
2019-02-12T00:51:50.709Z,997.72
2019-02-12T00:52:50.736Z,997.86
2019-02-12T00:53:50.754Z,997.91
2019-02-12T00:54:50.783Z,998.01
2019-02-12T00:55:50.803Z,997.97
2019-02-12T00:56:50.827Z,998.04
2019-02-12T00:57:50.853Z,997.91
2019-02-12T00:58:50.881Z,997.99
2019-02-12T00:59:50.902Z,998.07
2019-02-12T01:00:50.925Z,998.05
2019-02-12T01:01:50.950Z,998.13
2019-02-12T01:02:50.977Z,998.11
2019-02-12T01:03:50.999Z,998.21
2019-02-12T01:04:51.025Z,998.18
2019-02-12T01:05:51.052Z,998.21
2019-02-12T01:06:51.079Z,998.21
2019-02-12T01:07:51.101Z,998.28
2019-02-12T01:08:51.123Z,998.25
2019-02-12T01:09:51.147Z,998.26
2019-02-12T01:10:51.177Z,998.23
2019-02-12T01:11:51.196Z,998.27
2019-02-12T01:12:51.220Z,998.36
2019-02-12T01:13:51.249Z,998.25
2019-02-12T01:14:51.275Z,998.23
2019-02-12T01:15:51.298Z,998.30
2019-02-12T01:16:51.319Z,998.32
2019-02-12T01:17:51.345Z,998.38
2019-02-12T01:18:51.372Z,998.37
2019-02-12T01:19:51.394Z,998.36
2019-02-12T01:20:51.422Z,998.38
2019-02-12T01:21:51.446Z,998.41
2019-02-12T01:22:51.469Z,998.37
2019-02-12T01:23:51.503Z,998.40
2019-02-12T01:24:51.519Z,998.33
2019-02-12T01:25:51.543Z,998.43
2019-02-12T01:26:51.569Z,998.44
2019-02-12T01:27:51.595Z,998.43
2019-02-12T01:28:51.622Z,998.44
2019-02-12T01:29:51.642Z,998.46
2019-02-12T01:30:51.671Z,998.47
2019-02-12T01:31:51.700Z,998.47
2019-02-12T01:32:51.717Z,998.55
2019-02-12T01:33:51.741Z,998.55
2019-02-12T01:34:51.765Z,998.50
2019-02-12T01:35:51.791Z,998.55
2019-02-12T01:36:51.816Z,998.58
2019-02-12T01:37:51.845Z,998.61
2019-02-12T01:38:51.866Z,998.64
2019-02-12T01:39:51.892Z,998.70
2019-02-12T01:40:51.918Z,998.72
2019-02-12T01:41:51.939Z,998.68
2019-02-12T01:42:51.965Z,998.75
2019-02-12T01:43:51.989Z,998.65
2019-02-12T01:44:52.013Z,998.68
2019-02-12T01:45:52.041Z,998.75
2019-02-12T01:46:52.063Z,998.81
2019-02-12T01:47:52.091Z,998.82
2019-02-12T01:48:52.115Z,998.81
2019-02-12T01:49:52.142Z,998.84
2019-02-12T01:50:52.165Z,998.87
2019-02-12T01:51:52.186Z,998.89
2019-02-12T01:52:52.212Z,998.88
2019-02-12T01:53:52.236Z,998.99
2019-02-12T01:54:52.268Z,998.97
2019-02-12T01:55:52.289Z,998.99
2019-02-12T01:56:52.311Z,998.93
2019-02-12T01:57:52.336Z,998.91
2019-02-12T01:58:52.361Z,999.02
2019-02-12T01:59:52.386Z,999.00
2019-02-12T02:00:52.410Z,999.00
2019-02-12T02:01:52.436Z,999.13
2019-02-12T02:02:52.464Z,999.10
2019-02-12T02:03:52.484Z,998.99
2019-02-12T02:04:52.511Z,999.02
2019-02-12T02:05:52.535Z,999.02
2019-02-12T02:06:52.559Z,999.07
2019-02-12T02:07:52.585Z,999.14
2019-02-12T02:08:52.612Z,999.10
2019-02-12T02:09:52.634Z,999.14
2019-02-12T02:10:52.667Z,999.11
2019-02-12T02:11:52.684Z,999.19
2019-02-12T02:12:52.712Z,999.07
2019-02-12T02:13:52.734Z,999.28
2019-02-12T02:14:52.758Z,999.22
2019-02-12T02:15:52.784Z,999.24
2019-02-12T02:16:52.808Z,999.26
2019-02-12T02:17:52.832Z,999.24
2019-02-12T02:18:52.858Z,999.27
2019-02-12T02:19:52.884Z,999.31
2019-02-12T02:20:52.910Z,999.29
2019-02-12T02:21:52.931Z,999.25
2019-02-12T02:22:52.957Z,999.28
2019-02-12T02:23:52.981Z,999.32
2019-02-12T02:24:53.006Z,999.32
2019-02-12T02:25:53.036Z,999.27
2019-02-12T02:26:53.057Z,999.40
2019-02-12T02:27:53.082Z,999.43
2019-02-12T02:28:53.106Z,999.38
2019-02-12T02:29:53.134Z,999.56
2019-02-12T02:30:53.167Z,999.45
2019-02-12T02:31:53.183Z,999.56
2019-02-12T02:32:53.209Z,999.57
2019-02-12T02:33:53.235Z,999.64
2019-02-12T02:34:53.259Z,999.68
2019-02-12T02:35:53.280Z,999.68
2019-02-12T02:36:53.305Z,999.68
2019-02-12T02:37:53.336Z,999.74
2019-02-12T02:38:53.358Z,999.77
2019-02-12T02:39:53.384Z,999.81
2019-02-12T02:40:53.405Z,999.78
2019-02-12T02:41:53.430Z,999.76
2019-02-12T02:42:53.457Z,999.85
2019-02-12T02:43:53.480Z,999.87
2019-02-12T02:44:53.505Z,999.80
2019-02-12T02:45:53.533Z,999.86
2019-02-12T02:46:53.557Z,999.87
2019-02-12T02:47:53.578Z,999.90
2019-02-12T02:48:53.607Z,999.91
2019-02-12T02:49:53.633Z,999.98
2019-02-12T02:50:53.654Z,999.95
2019-02-12T02:51:54.281Z,999.98
2019-02-12T02:52:53.702Z,999.88
2019-02-12T02:53:53.735Z,1000.03
2019-02-12T02:54:53.753Z,1000.09
2019-02-12T02:55:53.777Z,1000.11
2019-02-12T02:56:53.856Z,1000.14
2019-02-12T02:57:53.828Z,1000.21
2019-02-12T02:58:53.853Z,1000.26
2019-02-12T02:59:53.877Z,1000.16
2019-02-12T03:00:53.901Z,1000.21
2019-02-12T03:01:53.930Z,1000.26
2019-02-12T03:02:53.955Z,1000.26
2019-02-12T03:03:53.978Z,1000.33
2019-02-12T03:04:54.005Z,1000.31
2019-02-12T03:05:54.026Z,1000.24
2019-02-12T03:06:54.052Z,1000.25
2019-02-12T03:07:54.074Z,1000.35
2019-02-12T03:08:54.100Z,1000.36
2019-02-12T03:09:54.129Z,1000.39
2019-02-12T03:10:54.152Z,1000.36
2019-02-12T03:11:54.179Z,1000.47
2019-02-12T03:12:54.199Z,1000.41
2019-02-12T03:13:54.225Z,1000.59
2019-02-12T03:14:54.253Z,1000.46
2019-02-12T03:15:54.274Z,1000.40
2019-02-12T03:16:54.302Z,1000.46
2019-02-12T03:17:54.324Z,1000.47
2019-02-12T03:18:54.351Z,1000.55
2019-02-12T03:19:54.376Z,1000.59
2019-02-12T03:20:54.400Z,1000.52
2019-02-12T03:22:03.143Z,1000.61
2019-02-12T03:22:54.450Z,1000.69
2019-02-12T03:23:54.473Z,1000.68
2019-02-12T03:24:54.499Z,1000.78
2019-02-12T03:25:54.531Z,1000.64
2019-02-12T03:26:54.550Z,1000.69
2019-02-12T03:27:54.576Z,1000.77
2019-02-12T03:28:54.598Z,1000.74
2019-02-12T03:29:54.631Z,1000.90
2019-02-12T03:30:54.654Z,1000.77
2019-02-12T03:31:54.673Z,1000.77
2019-02-12T03:32:54.698Z,1000.90
2019-02-12T03:33:54.722Z,1000.83
2019-02-12T03:34:54.748Z,1000.83
2019-02-12T03:35:54.773Z,1000.92
2019-02-12T03:36:54.797Z,1000.93
2019-02-12T03:37:54.829Z,1000.94
2019-02-12T03:38:54.858Z,1000.82
2019-02-12T03:39:54.875Z,1001.00
2019-02-12T03:40:54.896Z,1001.03
2019-02-12T03:41:54.928Z,1000.95
2019-02-12T03:42:54.952Z,1001.05
2019-02-12T03:43:54.970Z,1001.02
2019-02-12T03:44:54.995Z,1001.09
2019-02-12T03:45:55.082Z,1001.03
2019-02-12T03:46:55.045Z,1001.13
2019-02-12T03:47:55.069Z,1001.14
2019-02-12T03:48:55.094Z,1001.19
2019-02-12T03:49:55.119Z,1001.19
2019-02-12T03:50:55.148Z,1001.26
2019-02-12T03:51:55.170Z,1001.17
2019-02-12T03:52:55.195Z,1001.18
2019-02-12T03:53:55.222Z,1001.32
2019-02-12T03:54:55.245Z,1001.32
2019-02-12T03:55:55.266Z,1001.33
2019-02-12T03:56:55.294Z,1001.35
2019-02-12T03:57:55.320Z,1001.33
2019-02-12T03:58:55.345Z,1001.27
2019-02-12T03:59:55.366Z,1001.38
2019-02-12T04:00:55.393Z,1001.39
2019-02-12T04:01:55.420Z,1001.36
2019-02-12T04:02:55.450Z,1001.59
2019-02-12T04:03:55.467Z,1001.43
2019-02-12T04:04:55.493Z,1001.43
2019-02-12T04:05:55.518Z,1001.43
2019-02-12T04:06:55.546Z,1001.44
2019-02-12T04:07:55.568Z,1001.38
2019-02-12T04:08:55.605Z,1001.47
2019-02-12T04:09:55.617Z,1001.43
2019-02-12T04:10:55.647Z,1001.51
2019-02-12T04:11:55.666Z,1001.48
2019-02-12T04:12:55.691Z,1001.44
2019-02-12T04:13:55.719Z,1001.63
2019-02-12T04:14:55.742Z,1001.62
2019-02-12T04:15:55.770Z,1001.62
2019-02-12T04:16:55.798Z,1001.66
2019-02-12T04:17:55.817Z,1001.66
2019-02-12T04:18:55.840Z,1001.76
2019-02-12T04:19:55.865Z,1001.76
2019-02-12T04:20:55.897Z,1001.75
2019-02-12T04:21:55.921Z,1001.71
2019-02-12T04:22:55.940Z,1001.72
2019-02-12T04:23:55.968Z,1001.72
2019-02-12T04:24:55.990Z,1001.80
2019-02-12T04:25:56.014Z,1001.77
2019-02-12T04:26:56.057Z,1001.65
2019-02-12T04:27:56.065Z,1001.82
2019-02-12T04:28:56.141Z,1001.80
2019-02-12T04:29:56.118Z,1001.80
2019-02-12T04:30:56.140Z,1001.80
2019-02-12T04:31:56.162Z,1001.84
2019-02-12T04:32:56.189Z,1001.83
2019-02-12T04:33:56.211Z,1001.89
2019-02-12T04:34:56.253Z,1001.93
2019-02-12T04:35:56.309Z,1001.81
2019-02-12T04:36:56.289Z,1001.91
2019-02-12T04:37:56.313Z,1001.99
2019-02-12T04:38:56.338Z,1001.89
2019-02-12T04:39:56.369Z,1001.94
2019-02-12T04:40:56.385Z,1002.02
2019-02-12T04:41:56.454Z,1001.95
2019-02-12T04:42:56.440Z,1002.12
2019-02-12T04:43:56.458Z,1002.08
2019-02-12T04:44:56.485Z,1001.91
2019-02-12T04:45:56.509Z,1002.05
2019-02-12T04:46:56.540Z,1002.10
2019-02-12T04:47:56.566Z,1002.13
2019-02-12T04:48:56.584Z,1002.10
2019-02-12T04:49:56.612Z,1002.05
2019-02-12T04:50:56.636Z,1002.16
2019-02-12T04:51:56.660Z,1002.18
2019-02-12T04:52:56.683Z,1002.26
2019-02-12T04:53:56.707Z,1002.26
2019-02-12T04:54:56.781Z,1002.33
2019-02-12T04:55:56.757Z,1002.32
2019-02-12T04:56:56.781Z,1002.22
2019-02-12T04:57:56.811Z,1002.26
2019-02-12T04:58:56.830Z,1002.38
2019-02-12T04:59:56.859Z,1002.29
2019-02-12T05:00:56.880Z,1002.37
2019-02-12T05:01:56.909Z,1002.37
2019-02-12T05:02:56.937Z,1002.44
2019-02-12T05:03:56.955Z,1002.42
2019-02-12T05:04:56.979Z,1002.45
2019-02-12T05:05:57.006Z,1002.51
2019-02-12T05:06:57.030Z,1002.50
2019-02-12T05:07:57.053Z,1002.51
2019-02-12T05:08:57.983Z,1002.50
2019-02-12T05:09:57.105Z,1002.52
2019-02-12T05:10:57.129Z,1002.62
2019-02-12T05:11:57.155Z,1002.57
2019-02-12T05:12:57.181Z,1002.66
2019-02-12T05:13:57.204Z,1002.64
2019-02-12T05:14:57.229Z,1002.61
2019-02-12T05:15:57.254Z,1002.71
2019-02-12T05:16:57.282Z,1002.69
2019-02-12T05:17:57.304Z,1002.68
2019-02-12T05:18:57.326Z,1002.65
2019-02-12T05:19:57.356Z,1002.67
2019-02-12T05:20:57.375Z,1002.82
2019-02-12T05:21:57.405Z,1002.84
2019-02-12T05:22:57.429Z,1002.80
2019-02-12T05:23:59.092Z,1002.90
2019-02-12T05:24:57.476Z,1002.90
2019-02-12T05:25:57.500Z,1002.87
2019-02-12T05:26:57.526Z,1002.95
2019-02-12T05:27:57.549Z,1002.91
2019-02-12T05:28:57.580Z,1002.94
2019-02-12T05:29:57.600Z,1003.04
2019-02-12T05:30:57.626Z,1002.98
2019-02-12T05:31:57.651Z,1003.04
2019-02-12T05:32:57.673Z,1003.00
2019-02-12T05:33:57.701Z,1003.03
2019-02-12T05:34:57.729Z,1003.13
2019-02-12T05:35:57.747Z,1003.08
2019-02-12T05:36:57.774Z,1003.03
2019-02-12T05:37:57.797Z,1003.07
2019-02-12T05:38:57.822Z,1003.10
2019-02-12T05:39:57.852Z,1003.18
2019-02-12T05:40:57.873Z,1003.11
2019-02-12T05:41:57.897Z,1003.14
2019-02-12T05:42:57.922Z,1003.19
2019-02-12T05:43:57.965Z,1003.22
2019-02-12T05:44:57.983Z,1003.19
2019-02-12T05:45:57.999Z,1003.33
2019-02-12T05:46:58.021Z,1003.31
2019-02-12T05:47:58.046Z,1003.35
2019-02-12T05:48:58.071Z,1003.40
2019-02-12T05:49:58.096Z,1003.41
2019-02-12T05:50:58.123Z,1003.43
2019-02-12T05:51:58.196Z,1003.54
2019-02-12T05:52:58.172Z,1003.51
2019-02-12T05:53:58.196Z,1003.51
2019-02-12T05:54:58.220Z,1003.60
2019-02-12T05:55:58.252Z,1003.57
2019-02-12T05:56:58.273Z,1003.65
2019-02-12T05:57:58.294Z,1003.76
2019-02-12T05:58:58.320Z,1003.62
2019-02-12T05:59:58.430Z,1003.74
2019-02-12T06:00:58.385Z,1003.80
2019-02-12T06:01:58.393Z,1003.72
2019-02-12T06:02:58.417Z,1003.77
2019-02-12T06:03:58.442Z,1003.83
2019-02-12T06:04:58.467Z,1003.80
2019-02-12T06:05:58.492Z,1003.79
2019-02-12T06:06:58.519Z,1003.89
2019-02-12T06:07:58.543Z,1003.93
2019-02-12T06:08:58.566Z,1003.92
2019-02-12T06:09:58.590Z,1003.94
2019-02-12T06:10:58.619Z,1004.00
2019-02-12T06:11:58.642Z,1004.03
2019-02-12T06:12:58.666Z,1003.90
2019-02-12T06:13:58.689Z,1004.03
2019-02-12T06:14:58.764Z,1004.07
2019-02-12T06:15:58.738Z,1004.03
2019-02-12T06:16:58.763Z,1004.10
2019-02-12T06:17:58.845Z,1004.09
2019-02-12T06:18:58.814Z,1004.14
2019-02-12T06:19:58.841Z,1004.17
2019-02-12T06:20:58.866Z,1004.12
2019-02-12T06:21:58.889Z,1004.15
2019-02-12T06:23:03.747Z,1004.14
2019-02-12T06:23:58.938Z,1004.23
2019-02-12T06:24:58.963Z,1004.26
2019-02-12T06:25:58.993Z,1004.25
2019-02-12T06:26:59.011Z,1004.19
2019-02-12T06:27:59.036Z,1004.22
2019-02-12T06:28:59.064Z,1004.26
2019-02-12T06:29:59.086Z,1004.36
2019-02-12T06:30:59.117Z,1004.36
2019-02-12T06:31:59.142Z,1004.34
2019-02-12T06:33:07.362Z,1004.38
2019-02-12T06:33:59.185Z,1004.41
2019-02-12T06:34:59.212Z,1004.42
2019-02-12T06:35:59.236Z,1004.42
2019-02-12T06:36:59.261Z,1004.45
2019-02-12T06:37:59.288Z,1004.49
2019-02-12T06:38:59.312Z,1004.43
2019-02-12T06:39:59.339Z,1004.48
2019-02-12T06:40:59.360Z,1004.51
2019-02-12T06:41:59.389Z,1004.60
2019-02-12T06:42:59.412Z,1004.65
2019-02-12T06:43:59.434Z,1004.65
2019-02-12T06:44:59.459Z,1004.68
2019-02-12T06:45:59.487Z,1004.66
2019-02-12T06:46:59.517Z,1004.67
2019-02-12T06:47:59.541Z,1004.68
2019-02-12T06:48:59.558Z,1004.79
2019-02-12T06:49:59.587Z,1004.83
2019-02-12T06:50:59.610Z,1004.79
2019-02-12T06:51:59.634Z,1004.79
2019-02-12T06:52:59.660Z,1004.79
2019-02-12T06:53:59.690Z,1004.76
2019-02-12T06:54:59.709Z,1004.91
2019-02-12T06:55:59.735Z,1004.85
2019-02-12T06:56:59.762Z,1005.02
2019-02-12T06:57:59.785Z,1004.97
2019-02-12T06:58:59.811Z,1005.02
2019-02-12T06:59:59.835Z,1005.11
2019-02-12T07:00:59.859Z,1005.13
2019-02-12T07:01:59.884Z,1005.12
2019-02-12T07:02:59.908Z,1005.12
2019-02-12T07:03:59.934Z,1005.18
2019-02-12T07:04:59.962Z,1005.16
2019-02-12T07:05:59.984Z,1005.10
2019-02-12T07:07:00.015Z,1005.30
2019-02-12T07:08:00.036Z,1005.30
2019-02-12T07:09:00.060Z,1005.28
2019-02-12T07:10:00.346Z,1005.28
2019-02-12T07:11:00.109Z,1005.36
2019-02-12T07:12:00.136Z,1005.32
2019-02-12T07:13:00.164Z,1005.41
2019-02-12T07:14:00.198Z,1005.37
2019-02-12T07:15:00.308Z,1005.48
2019-02-12T07:16:00.234Z,1005.22
2019-02-12T07:17:00.260Z,1005.48
2019-02-12T07:18:00.287Z,1005.56
2019-02-12T07:19:00.314Z,1005.55
2019-02-12T07:20:00.533Z,1005.53
2019-02-12T07:21:00.362Z,1005.55
2019-02-12T07:22:00.387Z,1005.55
2019-02-12T07:23:00.410Z,1005.61
2019-02-12T07:24:00.436Z,1005.63
2019-02-12T07:25:00.460Z,1005.67
2019-02-12T07:26:00.487Z,1005.65
2019-02-12T07:27:00.511Z,1005.72
2019-02-12T07:28:00.544Z,1005.65
2019-02-12T07:29:00.561Z,1005.75
2019-02-12T07:30:00.587Z,1005.76
2019-02-12T07:31:00.622Z,1005.82
2019-02-12T07:32:00.643Z,1005.83
2019-02-12T07:33:00.669Z,1005.81
2019-02-12T07:34:00.690Z,1005.87
2019-02-12T07:35:00.717Z,1005.91
2019-02-12T07:36:00.741Z,1005.81
2019-02-12T07:37:00.877Z,1005.85
2019-02-12T07:38:00.788Z,1006.02
2019-02-12T07:39:00.814Z,1006.05
2019-02-12T07:40:00.844Z,1006.01
2019-02-12T07:41:00.865Z,1006.07
2019-02-12T07:42:00.891Z,1006.22
2019-02-12T07:43:00.917Z,1006.16
2019-02-12T07:44:00.941Z,1006.24
2019-02-12T07:45:00.968Z,1006.26
2019-02-12T07:46:00.994Z,1006.23
2019-02-12T07:47:01.018Z,1006.28
2019-02-12T07:48:01.042Z,1006.34
2019-02-12T07:49:01.068Z,1006.45
2019-02-12T07:50:01.090Z,1006.39
2019-02-12T07:51:01.117Z,1006.50
2019-02-12T07:52:01.144Z,1006.57
2019-02-12T07:53:01.166Z,1006.62
2019-02-12T07:54:01.195Z,1006.64
2019-02-12T07:55:01.222Z,1006.65
2019-02-12T07:56:01.249Z,1006.65
2019-02-12T07:57:01.271Z,1006.62
2019-02-12T07:58:01.299Z,1006.69
2019-02-12T07:59:01.339Z,1006.72
2019-02-12T08:00:01.347Z,1006.74
2019-02-12T08:01:01.377Z,1006.76
2019-02-12T08:02:01.418Z,1006.74
2019-02-12T08:03:01.425Z,1006.80
2019-02-12T08:04:01.447Z,1006.85
2019-02-12T08:05:01.473Z,1006.91
2019-02-12T08:06:01.506Z,1006.90
2019-02-12T08:07:01.524Z,1006.89
2019-02-12T08:08:01.551Z,1006.95
2019-02-12T08:09:01.574Z,1007.03
2019-02-12T08:10:01.599Z,1007.11
2019-02-12T08:11:01.632Z,1007.09
2019-02-12T08:12:01.654Z,1007.19
2019-02-12T08:13:01.681Z,1007.29
2019-02-12T08:14:01.705Z,1007.34
2019-02-12T08:15:01.734Z,1007.45
2019-02-12T08:16:01.758Z,1007.36
2019-02-12T08:17:01.784Z,1007.38
2019-02-12T08:18:01.812Z,1007.46
2019-02-12T08:19:01.838Z,1007.50
2019-02-12T08:20:01.868Z,1007.51
2019-02-12T08:21:01.904Z,1007.53
2019-02-12T08:22:01.927Z,1007.65
2019-02-12T08:23:01.979Z,1007.64
2019-02-12T08:24:01.978Z,1007.53
2019-02-12T08:25:02.069Z,1007.48
2019-02-12T08:26:02.044Z,1007.42
2019-02-12T08:27:02.069Z,1007.44
2019-02-12T08:28:02.093Z,1007.55
2019-02-12T08:29:02.134Z,1007.71
2019-02-12T08:30:02.151Z,1007.90
2019-02-12T08:31:02.180Z,1007.82
2019-02-12T08:32:02.212Z,1007.90
2019-02-12T08:33:02.240Z,1007.99
2019-02-12T08:34:02.272Z,1008.00
2019-02-12T08:35:02.297Z,1008.11
2019-02-12T08:36:02.329Z,1008.12
2019-02-12T08:37:02.355Z,1008.14
2019-02-12T08:38:02.387Z,1008.17
2019-02-12T08:39:02.422Z,1008.25
2019-02-12T08:40:02.448Z,1008.27
2019-02-12T08:41:02.477Z,1008.24
2019-02-12T08:42:02.507Z,1008.32
2019-02-12T08:43:02.544Z,1008.39
2019-02-12T08:44:02.573Z,1008.43
2019-02-12T08:45:02.602Z,1008.35
2019-02-12T08:46:02.635Z,1008.42
2019-02-12T08:47:02.665Z,1008.47
2019-02-12T08:48:02.700Z,1008.49
2019-02-12T08:49:02.730Z,1008.52
2019-02-12T08:50:02.759Z,1008.56
2019-02-12T08:51:02.791Z,1008.58
2019-02-12T08:52:02.818Z,1008.58
2019-02-12T08:53:02.857Z,1008.63
2019-02-12T08:54:02.912Z,1008.61
2019-02-12T08:55:02.917Z,1008.70
2019-02-12T08:56:02.953Z,1008.75
2019-02-12T08:57:02.990Z,1008.71
2019-02-12T08:58:03.015Z,1008.66
2019-02-12T08:59:03.048Z,1008.72
2019-02-12T09:00:03.619Z,1008.71
2019-02-12T09:01:03.136Z,1008.76
2019-02-12T09:02:03.147Z,1008.82
2019-02-12T09:03:03.181Z,1008.87
2019-02-12T09:04:03.206Z,1008.81
2019-02-12T09:05:03.240Z,1008.71
2019-02-12T09:06:03.911Z,1008.93
2019-02-12T09:07:03.308Z,1008.98
2019-02-12T09:08:03.350Z,1008.92
2019-02-12T09:09:03.371Z,1009.05
2019-02-12T09:10:03.409Z,1009.00
2019-02-12T09:11:03.439Z,1009.06
2019-02-12T09:12:03.471Z,1009.10
2019-02-12T09:13:03.503Z,1009.11
2019-02-12T09:14:03.538Z,1009.23
2019-02-12T09:15:03.572Z,1009.22
2019-02-12T09:16:03.610Z,1009.24
2019-02-12T09:17:03.633Z,1009.30
2019-02-12T09:18:03.666Z,1009.31
2019-02-12T09:19:03.700Z,1009.37
2019-02-12T09:20:03.737Z,1009.36
2019-02-12T09:21:03.765Z,1009.43
2019-02-12T09:22:03.799Z,1009.40
2019-02-12T09:23:03.833Z,1009.38
2019-02-12T09:24:03.877Z,1009.54
2019-02-12T09:25:03.899Z,1009.59
2019-02-12T09:26:03.933Z,1009.61
2019-02-12T09:27:03.968Z,1009.66
2019-02-12T09:28:03.999Z,1009.76
2019-02-12T09:29:04.035Z,1009.68
2019-02-12T09:30:04.065Z,1009.73
2019-02-12T09:31:04.101Z,1009.65
2019-02-12T09:32:04.134Z,1009.77
2019-02-12T09:33:04.169Z,1009.82
2019-02-12T09:34:04.205Z,1009.90
2019-02-12T09:35:04.236Z,1009.88
2019-02-12T09:36:04.267Z,1009.91
2019-02-12T09:37:04.304Z,1009.98
2019-02-12T09:38:04.345Z,1010.01
2019-02-12T09:39:04.369Z,1009.99
2019-02-12T09:40:04.401Z,1009.97
2019-02-12T09:41:04.436Z,1010.01
2019-02-12T09:42:04.469Z,1010.03
2019-02-12T09:43:04.502Z,1010.07
2019-02-12T09:44:04.535Z,1010.17
2019-02-12T09:45:04.568Z,1010.21
2019-02-12T09:46:04.603Z,1010.24
2019-02-12T09:47:04.635Z,1010.20
2019-02-12T09:48:04.670Z,1010.19
2019-02-12T09:49:04.703Z,1010.26
2019-02-12T09:50:04.743Z,1010.18
2019-02-12T09:51:04.772Z,1010.32
2019-02-12T09:52:04.804Z,1010.31
2019-02-12T09:53:04.839Z,1010.38
2019-02-12T09:54:08.750Z,1010.40
2019-02-12T09:55:04.908Z,1010.43
2019-02-12T09:56:04.937Z,1010.37
2019-02-12T09:57:04.972Z,1010.50
2019-02-12T09:58:05.014Z,1010.45
2019-02-12T09:59:05.042Z,1010.50
2019-02-12T10:00:05.076Z,1010.58
2019-02-12T10:01:05.107Z,1010.50
2019-02-12T10:02:05.140Z,1010.49
2019-02-12T10:03:05.179Z,1010.54
2019-02-12T10:04:05.212Z,1010.62
2019-02-12T10:05:05.243Z,1010.62
2019-02-12T10:06:05.278Z,1010.61
2019-02-12T10:07:05.315Z,1010.68
2019-02-12T10:08:05.344Z,1010.61
2019-02-12T10:09:05.380Z,1010.60
2019-02-12T10:10:05.412Z,1010.63
2019-02-12T10:11:05.449Z,1010.56
2019-02-12T10:12:05.480Z,1010.58
2019-02-12T10:13:05.517Z,1010.59
2019-02-12T10:14:05.551Z,1010.63
2019-02-12T10:15:05.587Z,1010.67
2019-02-12T10:16:05.619Z,1010.66
2019-02-12T10:17:05.652Z,1010.74
2019-02-12T10:18:05.686Z,1010.63
2019-02-12T10:19:05.718Z,1010.73
2019-02-12T10:20:05.750Z,1010.74
2019-02-12T10:21:05.788Z,1010.76
2019-02-12T10:22:05.818Z,1010.84
2019-02-12T10:23:06.559Z,1010.81
2019-02-12T10:24:05.939Z,1010.89
2019-02-12T10:25:05.923Z,1010.89
2019-02-12T10:26:06.017Z,1011.00
2019-02-12T10:27:05.989Z,1010.93
2019-02-12T10:28:06.021Z,1010.98
2019-02-12T10:29:06.062Z,1010.98
2019-02-12T10:30:06.094Z,1010.89
2019-02-12T10:31:06.126Z,1010.95
2019-02-12T10:32:08.675Z,1010.98
2019-02-12T10:33:06.192Z,1010.90
2019-02-12T10:34:06.228Z,1011.02
2019-02-12T10:35:06.263Z,1010.99
2019-02-12T10:36:06.293Z,1011.03
2019-02-12T10:37:06.328Z,1011.05
2019-02-12T10:38:06.366Z,1010.97
2019-02-12T10:39:06.399Z,1011.05
2019-02-12T10:40:06.430Z,1011.05
2019-02-12T10:41:06.465Z,1011.05
2019-02-12T10:42:06.503Z,1011.07
2019-02-12T10:43:06.539Z,1011.10
2019-02-12T10:44:06.567Z,1011.12
2019-02-12T10:45:06.600Z,1011.12
2019-02-12T10:46:06.632Z,1011.12
2019-02-12T10:47:08.353Z,1011.16
2019-02-12T10:48:06.711Z,1011.22
2019-02-12T10:49:06.768Z,1011.17
2019-02-12T10:50:06.771Z,1011.18
2019-02-12T10:51:06.803Z,1011.20
2019-02-12T10:52:06.837Z,1011.28
2019-02-12T10:53:08.871Z,1011.19
2019-02-12T10:54:06.904Z,1011.19
2019-02-12T10:55:06.941Z,1011.23
2019-02-12T10:56:06.974Z,1011.18
2019-02-12T10:57:07.003Z,1011.22
2019-02-12T10:58:08.591Z,1011.25
2019-02-12T10:59:07.074Z,1011.26
2019-02-12T11:00:07.108Z,1011.25
2019-02-12T11:01:07.138Z,1011.29
2019-02-12T11:02:07.175Z,1011.25
2019-02-12T11:03:07.209Z,1011.32
2019-02-12T11:04:07.240Z,1011.28
2019-02-12T11:05:07.281Z,1011.27
2019-02-12T11:06:07.309Z,1011.36
2019-02-12T11:07:07.343Z,1011.40
2019-02-12T11:08:07.375Z,1011.28
2019-02-12T11:09:07.408Z,1011.42
2019-02-12T11:10:07.449Z,1011.38
2019-02-12T11:11:07.475Z,1011.45
2019-02-12T11:12:07.511Z,1011.46
2019-02-12T11:13:07.553Z,1011.52
2019-02-12T11:14:07.575Z,1011.39
2019-02-12T11:15:07.612Z,1011.47
2019-02-12T11:16:07.644Z,1011.49
2019-02-12T11:17:07.680Z,1011.47
2019-02-12T11:18:07.711Z,1011.51
2019-02-12T11:19:07.746Z,1011.54
2019-02-12T11:20:07.778Z,1011.54
2019-02-12T11:21:11.926Z,1011.61
2019-02-12T11:22:07.843Z,1011.60
2019-02-12T11:23:07.884Z,1011.67
2019-02-12T11:24:07.908Z,1011.73
2019-02-12T11:25:07.944Z,1011.69
2019-02-12T11:26:07.977Z,1011.70
2019-02-12T11:27:08.014Z,1011.60
2019-02-12T11:28:08.044Z,1011.78
2019-02-12T11:29:08.076Z,1011.83
2019-02-12T11:30:08.110Z,1011.75
2019-02-12T11:31:08.142Z,1011.82
2019-02-12T11:32:08.181Z,1011.84
2019-02-12T11:33:08.212Z,1011.84
2019-02-12T11:34:08.245Z,1011.83
2019-02-12T11:35:08.276Z,1011.84
2019-02-12T11:36:08.310Z,1011.87
2019-02-12T11:37:08.345Z,1011.74
2019-02-12T11:38:08.375Z,1011.92
2019-02-12T11:39:08.412Z,1011.66
2019-02-12T11:40:08.444Z,1011.91
2019-02-12T11:41:08.477Z,1011.82
2019-02-12T11:42:08.508Z,1011.79
2019-02-12T11:43:08.545Z,1011.89
2019-02-12T11:44:08.574Z,1012.02
2019-02-12T11:45:08.607Z,1011.91
2019-02-12T11:46:08.639Z,1011.93
2019-02-12T11:47:08.679Z,1012.10
2019-02-12T11:48:08.704Z,1011.90
2019-02-12T11:49:08.735Z,1011.94
2019-02-12T11:50:08.768Z,1012.25
2019-02-12T11:51:08.799Z,1012.02
2019-02-12T11:52:08.836Z,1012.02
2019-02-12T11:53:08.910Z,1012.17
2019-02-12T11:54:08.894Z,1012.05
2019-02-12T11:55:08.925Z,1012.08
2019-02-12T11:56:08.956Z,1012.32
2019-02-12T11:57:08.986Z,1012.12
2019-02-12T11:58:09.020Z,1012.10
2019-02-12T11:59:09.056Z,1012.19
2019-02-12T12:00:09.081Z,1012.17
2019-02-12T12:01:09.112Z,1012.12
2019-02-12T12:02:09.144Z,1012.15
2019-02-12T12:03:09.176Z,1012.12
2019-02-12T12:04:09.204Z,1012.25
2019-02-12T12:05:09.233Z,1012.26
2019-02-12T12:06:09.264Z,1012.28
2019-02-12T12:07:09.296Z,1012.35
2019-02-12T12:08:09.324Z,1012.24
2019-02-12T12:09:09.354Z,1012.31
2019-02-12T12:10:09.388Z,1012.33
2019-02-12T12:11:09.420Z,1012.43
2019-02-12T12:12:09.442Z,1012.41